createdAt,value
2022-08-20T00:01:25.493Z,14.77
2022-08-20T00:04:46.437Z,13.18
2022-08-20T00:08:07.446Z,14.40
2022-08-20T00:11:34.424Z,14.00
2022-08-20T00:14:56.434Z,14.93
2022-08-20T00:18:18.428Z,14.88
2022-08-20T00:21:39.433Z,15.98
2022-08-20T00:25:00.427Z,15.07
2022-08-20T00:28:21.432Z,15.50
2022-08-20T00:31:42.421Z,15.23
2022-08-20T00:35:03.439Z,17.15
2022-08-20T00:38:24.427Z,17.92
2022-08-20T00:41:45.449Z,16.00
2022-08-20T00:45:06.438Z,15.65
2022-08-20T00:48:27.448Z,15.18
2022-08-20T00:51:56.448Z,15.60
2022-08-20T00:55:20.499Z,15.90
2022-08-20T00:58:42.442Z,14.13
2022-08-20T01:02:04.477Z,15.30
2022-08-20T01:05:29.708Z,14.30
2022-08-20T01:08:43.450Z,14.85
2022-08-20T01:12:04.447Z,14.15
2022-08-20T01:15:30.843Z,14.65
2022-08-20T01:18:53.429Z,13.55
2022-08-20T01:22:36.453Z,13.60
2022-08-20T01:26:18.465Z,13.25
2022-08-20T01:29:47.465Z,12.48
2022-08-20T01:33:09.459Z,13.10
2022-08-20T01:36:34.442Z,13.82
2022-08-20T01:39:55.499Z,12.30
2022-08-20T01:43:18.438Z,10.60
2022-08-20T01:46:50.472Z,10.40
2022-08-20T01:50:29.458Z,11.50
2022-08-20T01:53:53.456Z,9.55
2022-08-20T01:57:18.452Z,9.55
2022-08-20T02:00:41.467Z,9.13
2022-08-20T02:04:02.455Z,8.75
2022-08-20T02:07:31.477Z,8.50
2022-08-20T02:10:53.469Z,8.45
2022-08-20T02:14:15.462Z,9.13
2022-08-20T02:17:38.447Z,8.68
2022-08-20T02:21:01.467Z,7.95
2022-08-20T02:24:22.500Z,8.65
2022-08-20T02:27:44.473Z,8.38
2022-08-20T02:31:08.470Z,8.32
2022-08-20T02:34:29.479Z,8.82
2022-08-20T02:37:44.488Z,8.82
2022-08-20T02:41:05.515Z,9.20
2022-08-20T02:44:28.516Z,9.43
2022-08-20T02:47:50.518Z,9.75
2022-08-20T02:51:15.495Z,9.55
2022-08-20T02:54:36.486Z,12.13
2022-08-20T02:57:58.721Z,13.38
2022-08-20T03:01:24.502Z,15.10
2022-08-20T03:04:45.487Z,17.33
2022-08-20T03:08:07.482Z,19.90
2022-08-20T03:11:28.505Z,20.50
2022-08-20T03:14:49.485Z,22.25
2022-08-20T03:18:10.482Z,21.55
2022-08-20T03:21:31.467Z,23.63
2022-08-20T03:24:52.484Z,24.40
2022-08-20T03:28:14.462Z,24.55
2022-08-20T03:31:36.488Z,22.27
2022-08-20T03:34:57.471Z,22.88
2022-08-20T03:38:32.952Z,20.80
2022-08-20T03:41:54.483Z,18.42
2022-08-20T03:45:20.249Z,16.10
2022-08-20T03:48:42.471Z,14.20
2022-08-20T03:52:04.487Z,13.23
2022-08-20T03:55:25.485Z,12.90
2022-08-20T03:58:47.491Z,11.75
2022-08-20T04:02:08.503Z,12.02
2022-08-20T04:05:29.491Z,14.05
2022-08-20T04:08:50.519Z,13.23
2022-08-20T04:12:11.531Z,13.38
2022-08-20T04:15:32.515Z,13.30
2022-08-20T04:18:58.632Z,13.73
2022-08-20T04:22:23.502Z,11.35
2022-08-20T04:25:47.484Z,12.02
2022-08-20T04:29:08.509Z,11.07
2022-08-20T04:32:29.564Z,11.90
2022-08-20T04:35:50.521Z,10.98
2022-08-20T04:39:11.519Z,9.50
2022-08-20T04:42:32.497Z,10.70
2022-08-20T04:45:53.503Z,9.25
2022-08-20T04:49:14.506Z,10.35
2022-08-20T04:52:35.500Z,8.73
2022-08-20T04:55:59.512Z,9.48
2022-08-20T04:59:20.529Z,8.68
2022-08-20T05:02:42.518Z,10.23
2022-08-20T05:06:03.496Z,8.25
2022-08-20T05:09:24.545Z,9.40
2022-08-20T05:12:56.470Z,8.65
2022-08-20T05:16:17.530Z,9.40
2022-08-20T05:19:39.013Z,8.60
2022-08-20T05:23:00.524Z,9.88
2022-08-20T05:26:22.514Z,8.32
2022-08-20T05:29:43.529Z,9.02
2022-08-20T05:33:04.540Z,8.07
2022-08-20T05:36:25.513Z,8.35
2022-08-20T05:39:46.552Z,7.85
2022-08-20T05:43:07.523Z,8.57
2022-08-20T05:46:28.535Z,9.07
2022-08-20T05:49:50.531Z,9.02
2022-08-20T05:53:11.554Z,7.72
2022-08-20T05:56:32.521Z,7.90
2022-08-20T05:59:53.536Z,7.80
2022-08-20T06:03:32.524Z,7.28
2022-08-20T06:06:54.545Z,7.07
2022-08-20T06:10:16.539Z,8.05
2022-08-20T06:13:37.558Z,5.90
2022-08-20T06:16:59.142Z,7.45
2022-08-20T06:20:21.544Z,6.53
2022-08-20T06:23:56.387Z,6.03
2022-08-20T06:27:19.617Z,6.32
2022-08-20T06:30:40.522Z,6.95
2022-08-20T06:34:01.561Z,6.18
2022-08-20T06:37:31.157Z,5.68
2022-08-20T06:40:52.558Z,5.53
2022-08-20T06:44:13.542Z,5.75
2022-08-20T06:47:35.555Z,6.53
2022-08-20T06:50:59.528Z,4.60
2022-08-20T06:54:20.552Z,5.13
2022-08-20T06:57:51.539Z,4.38
2022-08-20T07:01:12.630Z,4.70
2022-08-20T07:04:33.606Z,4.70
2022-08-20T07:07:58.555Z,4.10
2022-08-20T07:11:22.480Z,4.68
2022-08-20T07:14:47.569Z,4.55
2022-08-20T07:18:11.572Z,5.20
2022-08-20T07:21:25.557Z,5.05
2022-08-20T07:24:49.142Z,4.50
2022-08-20T07:28:20.559Z,4.95
2022-08-20T07:32:00.577Z,4.63
2022-08-20T07:35:25.564Z,4.50
2022-08-20T07:38:47.572Z,4.72
2022-08-20T07:42:13.551Z,4.68
2022-08-20T07:45:34.569Z,4.80
2022-08-20T07:48:57.571Z,4.75
2022-08-20T07:52:19.566Z,6.03
2022-08-20T07:55:41.567Z,4.65
2022-08-20T07:59:17.563Z,3.72
2022-08-20T08:02:41.567Z,3.95
2022-08-20T08:06:03.599Z,4.00
2022-08-20T08:09:27.592Z,4.57
2022-08-20T08:12:58.715Z,5.05
2022-08-20T08:16:22.600Z,3.95
2022-08-20T08:19:47.582Z,4.18
2022-08-20T08:23:08.605Z,4.60
2022-08-20T08:26:45.581Z,4.50
2022-08-20T08:30:06.626Z,3.83
2022-08-20T08:33:37.571Z,3.83
2022-08-20T08:36:58.591Z,4.63
2022-08-20T08:40:19.690Z,4.18
2022-08-20T08:43:34.601Z,3.88
2022-08-20T08:46:58.586Z,5.25
2022-08-20T08:50:43.843Z,4.82
2022-08-20T08:54:07.257Z,4.15
2022-08-20T08:57:28.595Z,5.35
2022-08-20T09:00:56.133Z,5.18
2022-08-20T09:04:21.846Z,5.53
2022-08-20T09:07:46.590Z,5.43
2022-08-20T09:11:07.613Z,5.60
2022-08-20T09:14:28.568Z,5.00
2022-08-20T09:17:49.708Z,5.85
2022-08-20T09:21:10.579Z,6.57
